createdAt,value
2023-04-30T00:00:57.350Z,844.5000
2023-04-30T00:02:01.798Z,845.4167
2023-04-30T00:03:06.502Z,850.9167
2023-04-30T00:04:11.056Z,854.2500
2023-04-30T00:05:15.491Z,847.7500
2023-04-30T00:06:20.210Z,847.2500
2023-04-30T00:07:24.650Z,850.9167
2023-04-30T00:08:29.285Z,850.3333
2023-04-30T00:09:33.711Z,854.9167
2023-04-30T00:10:38.386Z,854.5000
2023-04-30T00:11:42.788Z,837.3333
2023-04-30T00:12:47.218Z,841.4167
2023-04-30T00:13:51.954Z,849.0833
2023-04-30T00:14:56.347Z,850.0833
2023-04-30T00:16:00.951Z,859.0833
2023-04-30T00:17:05.376Z,863.6667
2023-04-30T00:18:10.030Z,858.1667
2023-04-30T00:19:14.478Z,852.3333
2023-04-30T00:20:18.878Z,851.8333
2023-04-30T00:21:23.370Z,853.1667
2023-04-30T00:22:28.060Z,858.0000
2023-04-30T00:23:32.593Z,861.8333
2023-04-30T00:24:37.018Z,853.9167
2023-04-30T00:25:41.558Z,849.2500
2023-04-30T00:26:45.957Z,851.5000
2023-04-30T00:27:50.413Z,849.9167
2023-04-30T00:28:54.813Z,853.3333
2023-04-30T00:29:59.233Z,860.1667
2023-04-30T00:31:03.836Z,857.4167
2023-04-30T00:32:08.345Z,855.1667
2023-04-30T00:33:12.997Z,856.4167
2023-04-30T00:34:17.433Z,855.6667
2023-04-30T00:35:22.084Z,855.0833
2023-04-30T00:36:26.522Z,862.3333
2023-04-30T00:37:30.953Z,855.6667
2023-04-30T00:38:35.387Z,854.5000
2023-04-30T00:39:39.763Z,855.4167
2023-04-30T00:40:44.206Z,856.9167
2023-04-30T00:41:48.646Z,861.1667
2023-04-30T00:42:53.082Z,867.2500
2023-04-30T00:43:57.494Z,864.2500
2023-04-30T00:45:01.885Z,861.2500
2023-04-30T00:46:06.366Z,859.0000
2023-04-30T00:47:10.821Z,859.0000
2023-04-30T00:48:15.261Z,860.6667
2023-04-30T00:49:19.684Z,866.8333
2023-04-30T00:50:24.105Z,863.7500
2023-04-30T00:51:28.531Z,857.9167
2023-04-30T00:52:32.946Z,858.6667
2023-04-30T00:53:37.376Z,860.2500
2023-04-30T00:54:41.794Z,860.5833
2023-04-30T00:55:46.206Z,865.0000
2023-04-30T00:56:50.629Z,862.5833
2023-04-30T00:57:55.274Z,857.4167
2023-04-30T00:58:59.715Z,853.5833
2023-04-30T01:00:06.022Z,852.6667
2023-04-30T01:01:10.479Z,853.1667
2023-04-30T01:02:14.900Z,859.7500
2023-04-30T01:03:19.405Z,857.6667
2023-04-30T01:04:23.799Z,851.0833
2023-04-30T01:05:28.222Z,850.5833
2023-04-30T01:06:32.646Z,848.9167
2023-04-30T01:07:37.051Z,850.6667
2023-04-30T01:08:41.494Z,853.5000
2023-04-30T01:09:45.890Z,849.7500
2023-04-30T01:10:50.299Z,848.2500
2023-04-30T01:11:54.732Z,846.0000
2023-04-30T01:12:55.353Z,845.9091
2023-04-30T01:13:59.780Z,849.7500
2023-04-30T01:15:04.204Z,858.4167
2023-04-30T01:16:08.653Z,851.7500
2023-04-30T01:17:13.055Z,847.0833
2023-04-30T01:18:17.627Z,849.4167
2023-04-30T01:19:22.145Z,851.2500
2023-04-30T01:20:26.547Z,851.8333
2023-04-30T01:21:30.986Z,861.0000
2023-04-30T01:22:35.381Z,852.9167
2023-04-30T01:23:39.816Z,846.2500
2023-04-30T01:24:44.249Z,846.7500
2023-04-30T01:25:48.825Z,846.4167
2023-04-30T01:26:53.249Z,846.8333
2023-04-30T01:27:57.880Z,855.0833
2023-04-30T01:29:02.335Z,848.6667
2023-04-30T01:30:06.739Z,847.2500
2023-04-30T01:31:11.236Z,849.7500
2023-04-30T01:32:15.628Z,851.5833
2023-04-30T01:33:20.058Z,853.3333
2023-04-30T01:34:24.446Z,858.8333
2023-04-30T01:35:28.883Z,852.1667
2023-04-30T01:36:33.295Z,844.6667
2023-04-30T01:37:37.717Z,840.0833
2023-04-30T01:38:42.118Z,838.4167
2023-04-30T01:39:46.565Z,841.3333
2023-04-30T01:40:50.957Z,850.3333
2023-04-30T01:41:55.390Z,849.5833
2023-04-30T01:43:00.055Z,844.4167
2023-04-30T01:44:04.480Z,840.9167
2023-04-30T01:45:08.901Z,837.5000
2023-04-30T01:46:13.436Z,841.3333
2023-04-30T01:47:17.824Z,849.5000
2023-04-30T01:48:22.485Z,846.6667
2023-04-30T01:49:26.913Z,842.3333
2023-04-30T01:50:31.660Z,843.0000
2023-04-30T01:51:36.069Z,844.0000
2023-04-30T01:52:40.475Z,841.8333
2023-04-30T01:53:45.158Z,855.1667
2023-04-30T01:54:49.567Z,849.9167
2023-04-30T01:55:54.132Z,844.3333
2023-04-30T01:56:58.567Z,843.6667
2023-04-30T01:58:03.390Z,844.8333
2023-04-30T01:59:07.815Z,847.1667
2023-04-30T02:00:12.278Z,853.1667
2023-04-30T02:01:17.085Z,851.3333
2023-04-30T02:02:21.535Z,844.4167
2023-04-30T02:03:26.320Z,843.7500
2023-04-30T02:04:30.750Z,844.5833
2023-04-30T02:05:35.161Z,847.4167
2023-04-30T02:06:39.803Z,853.9167
2023-04-30T02:07:44.297Z,851.0833
2023-04-30T02:08:48.956Z,844.3333
2023-04-30T02:09:53.529Z,846.4167
2023-04-30T02:10:58.334Z,849.5833
2023-04-30T02:12:02.748Z,852.0833
2023-04-30T02:13:07.339Z,860.4167
2023-04-30T02:14:11.748Z,852.7500
2023-04-30T02:15:16.171Z,851.4167
2023-04-30T02:16:20.896Z,849.8333
2023-04-30T02:17:25.419Z,850.8333
2023-04-30T02:18:29.817Z,850.0000
2023-04-30T02:19:34.233Z,855.0833
2023-04-30T02:20:38.779Z,849.4167
2023-04-30T02:21:43.218Z,842.6667
2023-04-30T02:22:47.650Z,841.6667
2023-04-30T02:23:52.109Z,843.0000
2023-04-30T02:24:56.535Z,846.0000
2023-04-30T02:26:00.955Z,855.8333
2023-04-30T02:27:05.348Z,852.5000
2023-04-30T02:28:09.750Z,845.6667
2023-04-30T02:29:14.180Z,846.5000
2023-04-30T02:30:18.611Z,844.9167
2023-04-30T02:31:23.073Z,847.6667
2023-04-30T02:32:27.482Z,853.3333
2023-04-30T02:33:31.886Z,851.0000
2023-04-30T02:34:36.285Z,845.0833
2023-04-30T02:35:40.710Z,844.9167
2023-04-30T02:36:45.148Z,847.1667
2023-04-30T02:37:49.566Z,850.3333
2023-04-30T02:38:53.998Z,855.5833
2023-04-30T02:39:58.398Z,854.5000
2023-04-30T02:41:03.535Z,844.4167
2023-04-30T02:42:07.942Z,841.5833
2023-04-30T02:43:12.694Z,838.0000
2023-04-30T02:44:17.110Z,836.0833
2023-04-30T02:45:21.520Z,841.5833
2023-04-30T02:46:26.240Z,843.9167
2023-04-30T02:47:30.725Z,839.5833
2023-04-30T02:48:35.283Z,835.6667
2023-04-30T02:49:39.685Z,838.1667
2023-04-30T02:50:44.374Z,838.9167
2023-04-30T02:51:48.778Z,843.2500
2023-04-30T02:52:53.206Z,843.0000
2023-04-30T02:53:57.602Z,839.0833
2023-04-30T02:55:02.016Z,837.3333
2023-04-30T02:56:06.705Z,840.4167
2023-04-30T02:57:11.129Z,842.9167
2023-04-30T02:58:15.812Z,846.9167
2023-04-30T02:59:20.220Z,844.0833
2023-04-30T03:00:24.653Z,839.9167
2023-04-30T03:01:29.083Z,839.7500
2023-04-30T03:02:33.561Z,840.1667
2023-04-30T03:03:38.138Z,842.8333
2023-04-30T03:04:42.544Z,847.7500
2023-04-30T03:05:47.105Z,846.0833
2023-04-30T03:06:51.517Z,843.6667
2023-04-30T03:07:55.958Z,843.9167
2023-04-30T03:09:00.646Z,843.8333
2023-04-30T03:10:05.065Z,842.7500
2023-04-30T03:11:09.561Z,848.9167
2023-04-30T03:12:13.994Z,845.9167
2023-04-30T03:13:18.640Z,838.4167
2023-04-30T03:14:23.066Z,839.9167
2023-04-30T03:15:27.510Z,838.6667
2023-04-30T03:16:31.960Z,839.9167
2023-04-30T03:17:36.463Z,843.4167
2023-04-30T03:18:40.864Z,845.5833
2023-04-30T03:19:45.292Z,842.2500
2023-04-30T03:20:49.695Z,841.0833
2023-04-30T03:21:54.120Z,843.7500
2023-04-30T03:22:58.524Z,842.9167
2023-04-30T03:24:02.944Z,850.1667
2023-04-30T03:25:07.375Z,848.2500
2023-04-30T03:26:12.031Z,841.1667
2023-04-30T03:27:16.466Z,837.2500
2023-04-30T03:28:20.971Z,832.2500
2023-04-30T03:29:25.413Z,833.5000
2023-04-30T03:30:29.797Z,841.7500
2023-04-30T03:31:34.265Z,845.5833
2023-04-30T03:32:38.674Z,839.5000
2023-04-30T03:33:43.629Z,838.5833
2023-04-30T03:34:48.031Z,837.4167
2023-04-30T03:35:48.880Z,838.8182
2023-04-30T03:36:53.277Z,844.4167
2023-04-30T03:37:57.684Z,844.0833
2023-04-30T03:39:02.345Z,840.6667
2023-04-30T03:40:06.761Z,841.0833
2023-04-30T03:41:11.420Z,844.0000
2023-04-30T03:42:15.823Z,840.0000
2023-04-30T03:43:20.257Z,848.2500
2023-04-30T03:44:24.684Z,850.5000
2023-04-30T03:45:29.108Z,842.0000
2023-04-30T03:46:33.545Z,836.0833
2023-04-30T03:47:37.978Z,834.8333
2023-04-30T03:48:42.379Z,832.3333
2023-04-30T03:49:46.811Z,835.6667
2023-04-30T03:50:51.551Z,841.8333
2023-04-30T03:51:55.971Z,836.2500
2023-04-30T03:53:00.370Z,832.1667
2023-04-30T03:54:04.798Z,832.4167
2023-04-30T03:55:09.203Z,833.0833
2023-04-30T03:56:13.987Z,841.4167
2023-04-30T03:57:18.381Z,841.5000
2023-04-30T03:58:22.930Z,835.0833
2023-04-30T03:59:27.332Z,835.6667
2023-04-30T04:00:31.770Z,832.7500
2023-04-30T04:01:36.216Z,831.8333
2023-04-30T04:02:40.645Z,838.1667
2023-04-30T04:03:45.368Z,840.4167
2023-04-30T04:04:49.751Z,831.9167
2023-04-30T04:05:54.430Z,830.3333
2023-04-30T04:06:58.930Z,833.7500
2023-04-30T04:08:03.339Z,836.0000
2023-04-30T04:09:07.767Z,840.0000
2023-04-30T04:10:12.163Z,843.1667
2023-04-30T04:11:16.698Z,841.0000
2023-04-30T04:12:21.123Z,837.5000
2023-04-30T04:13:25.534Z,836.6667
2023-04-30T04:14:29.954Z,839.3333
2023-04-30T04:15:34.417Z,846.1667
2023-04-30T04:16:38.839Z,844.6667
2023-04-30T04:17:43.299Z,832.9167
2023-04-30T04:18:47.739Z,828.8333
2023-04-30T04:19:52.295Z,835.7500
2023-04-30T04:20:56.812Z,841.4167
2023-04-30T04:22:01.238Z,847.0833
2023-04-30T04:23:05.645Z,849.7500
2023-04-30T04:24:10.083Z,837.4167
2023-04-30T04:25:14.492Z,833.0000
2023-04-30T04:26:19.166Z,835.3333
2023-04-30T04:27:23.593Z,837.4167
2023-04-30T04:28:28.040Z,839.9167
2023-04-30T04:29:32.450Z,842.7500
2023-04-30T04:30:36.841Z,838.6667
2023-04-30T04:31:41.526Z,835.7500
2023-04-30T04:32:46.005Z,836.3333
2023-04-30T04:33:50.561Z,834.7500
2023-04-30T04:34:54.977Z,835.5833
2023-04-30T04:35:59.466Z,841.3333
2023-04-30T04:37:03.910Z,831.5833
2023-04-30T04:38:08.301Z,828.4167
2023-04-30T04:39:12.718Z,831.1667
2023-04-30T04:40:17.126Z,835.1667
2023-04-30T04:41:21.572Z,839.0000
2023-04-30T04:42:25.984Z,842.5000
2023-04-30T04:43:30.734Z,835.5833
2023-04-30T04:44:35.143Z,832.5000
2023-04-30T04:45:39.573Z,834.6667
2023-04-30T04:46:44.282Z,836.1667
2023-04-30T04:47:48.736Z,838.3333
2023-04-30T04:48:53.160Z,843.0833
2023-04-30T04:49:57.549Z,838.5000
2023-04-30T04:51:02.093Z,836.1667
2023-04-30T04:52:06.485Z,833.8333
2023-04-30T04:53:10.926Z,833.7500
2023-04-30T04:54:15.329Z,837.4167
2023-04-30T04:55:19.736Z,847.9167
2023-04-30T04:56:24.161Z,838.5833
2023-04-30T04:57:28.614Z,835.4167
2023-04-30T04:58:33.008Z,834.6667
2023-04-30T04:59:37.419Z,835.0833
2023-04-30T05:00:41.953Z,839.6667
2023-04-30T05:01:46.425Z,848.4167
2023-04-30T05:02:50.940Z,839.1667
2023-04-30T05:03:55.535Z,832.6667
2023-04-30T05:04:59.960Z,830.7500
2023-04-30T05:06:04.399Z,830.9167
2023-04-30T05:07:08.805Z,835.6667
2023-04-30T05:08:13.251Z,842.1667
2023-04-30T05:09:17.683Z,837.0000
2023-04-30T05:10:22.103Z,829.6667
2023-04-30T05:11:26.606Z,827.7500
2023-04-30T05:12:31.034Z,828.6667
2023-04-30T05:13:42.920Z,833.0833
2023-04-30T05:14:47.348Z,837.2500
2023-04-30T05:15:51.780Z,831.2500
2023-04-30T05:16:56.155Z,828.5833
2023-04-30T05:18:00.659Z,827.1667
2023-04-30T05:19:05.177Z,828.5833
2023-04-30T05:20:09.599Z,830.9167
2023-04-30T05:21:14.036Z,833.0833
2023-04-30T05:22:18.457Z,826.3333
2023-04-30T05:23:22.867Z,826.1667
2023-04-30T05:24:27.281Z,830.0833
2023-04-30T05:25:31.722Z,831.5833
2023-04-30T05:26:36.110Z,835.0833
2023-04-30T05:27:40.536Z,841.1667
2023-04-30T05:28:44.974Z,835.4167
2023-04-30T05:29:49.379Z,830.1667
2023-04-30T05:30:53.820Z,829.5000
2023-04-30T05:31:58.303Z,831.2500
2023-04-30T05:33:02.730Z,835.5000
2023-04-30T05:34:07.173Z,841.1667
2023-04-30T05:35:11.572Z,836.1667
2023-04-30T05:36:15.979Z,832.0000
2023-04-30T05:37:20.415Z,830.7500
2023-04-30T05:38:24.829Z,828.8333
2023-04-30T05:39:29.377Z,833.2500
2023-04-30T05:40:33.784Z,839.7500
2023-04-30T05:41:34.463Z,835.5455
2023-04-30T05:42:38.915Z,830.7500
2023-04-30T05:43:43.296Z,830.3333
2023-04-30T05:44:47.726Z,831.4167
2023-04-30T05:45:52.182Z,834.8333
2023-04-30T05:46:56.599Z,839.5833
2023-04-30T05:48:01.024Z,835.9167
2023-04-30T05:49:05.705Z,830.5833
2023-04-30T05:50:10.201Z,831.0000
2023-04-30T05:51:14.841Z,831.4167
2023-04-30T05:52:19.289Z,833.2500
2023-04-30T05:53:23.719Z,840.4167
2023-04-30T05:54:28.174Z,834.9167
2023-04-30T05:55:32.651Z,832.7500
2023-04-30T05:56:37.689Z,833.0000
2023-04-30T05:57:42.163Z,835.3333
2023-04-30T05:58:46.709Z,836.8333
2023-04-30T05:59:51.198Z,845.9167
2023-04-30T06:00:55.601Z,841.1667
2023-04-30T06:02:00.132Z,835.1667
2023-04-30T06:03:04.562Z,835.1667
2023-04-30T06:04:09.090Z,836.8333
2023-04-30T06:05:16.084Z,838.2500
2023-04-30T06:06:15.503Z,846.0000
2023-04-30T06:07:19.999Z,842.0833
2023-04-30T06:08:24.466Z,832.2500
2023-04-30T06:09:28.918Z,832.2500
2023-04-30T06:10:33.365Z,833.0833
2023-04-30T06:11:38.102Z,835.0000
2023-04-30T06:12:42.494Z,839.5833
2023-04-30T06:13:46.968Z,841.1667
2023-04-30T06:14:51.417Z,835.0000
2023-04-30T06:15:55.838Z,837.2500
2023-04-30T06:17:00.334Z,839.0833
2023-04-30T06:18:04.779Z,839.0000
2023-04-30T06:19:09.000Z,845.1111
2023-04-30T06:20:13.432Z,845.3333
2023-04-30T06:21:17.896Z,836.4167
2023-04-30T06:22:22.317Z,835.0000
2023-04-30T06:23:31.220Z,837.3000
2023-04-30T06:24:24.619Z,839.5714
2023-04-30T06:25:29.070Z,844.2500
2023-04-30T06:26:33.502Z,852.7500
2023-04-30T06:27:37.956Z,843.5000
2023-04-30T06:28:39.355Z,837.6000
2023-04-30T06:29:43.769Z,838.0000
2023-04-30T06:30:48.227Z,839.0833
2023-04-30T06:31:52.926Z,846.5833
2023-04-30T06:32:57.546Z,850.7500
2023-04-30T06:34:01.983Z,839.8333
2023-04-30T06:35:06.463Z,836.0833
2023-04-30T06:36:10.905Z,838.6667
2023-04-30T06:37:15.343Z,842.0000
2023-04-30T06:38:19.789Z,843.0000
2023-04-30T06:39:24.255Z,843.7500
2023-04-30T06:40:28.716Z,831.5833
2023-04-30T06:41:33.178Z,826.0000
2023-04-30T06:42:37.620Z,825.9167
2023-04-30T06:43:42.092Z,826.2500
2023-04-30T06:44:46.524Z,826.5833
2023-04-30T06:45:51.014Z,832.9167
2023-04-30T06:46:55.491Z,831.1667
2023-04-30T06:47:59.990Z,830.0833
2023-04-30T06:49:04.457Z,829.7500
2023-04-30T06:50:08.919Z,830.5833
2023-04-30T06:51:13.334Z,834.9167
2023-04-30T06:52:17.819Z,838.5000
2023-04-30T06:53:22.246Z,829.3333
2023-04-30T06:54:26.733Z,827.7500
2023-04-30T06:55:31.171Z,831.0833
2023-04-30T06:56:35.641Z,834.7500
2023-04-30T06:57:40.129Z,836.1667
2023-04-30T06:58:44.566Z,840.9167
2023-04-30T06:59:49.012Z,835.8333
2023-04-30T07:00:53.445Z,826.3333
2023-04-30T07:01:57.983Z,825.4167
2023-04-30T07:03:02.542Z,829.0000
2023-04-30T07:04:07.122Z,832.6667
2023-04-30T07:05:11.575Z,839.5000
2023-04-30T07:06:16.043Z,837.5000
2023-04-30T07:07:20.440Z,828.6667
2023-04-30T07:08:24.892Z,828.7500
2023-04-30T07:09:29.343Z,828.6667
2023-04-30T07:10:33.780Z,830.2500
2023-04-30T07:11:38.217Z,837.5000
2023-04-30T07:12:42.676Z,837.6667
2023-04-30T07:13:47.115Z,831.4167
2023-04-30T07:14:51.551Z,830.7500
2023-04-30T07:15:56.003Z,830.5833
2023-04-30T07:17:00.467Z,829.6667
2023-04-30T07:18:04.908Z,835.5000
2023-04-30T07:19:09.357Z,840.5000
2023-04-30T07:20:13.798Z,834.8333
2023-04-30T07:21:18.267Z,832.0833
2023-04-30T07:22:22.702Z,835.6667
2023-04-30T07:23:28.502Z,835.2500
2023-04-30T07:24:29.545Z,838.0000
2023-04-30T07:25:34.010Z,838.5000
2023-04-30T07:26:38.435Z,833.5000
2023-04-30T07:27:42.890Z,830.7500
2023-04-30T07:28:47.323Z,829.9167
2023-04-30T07:29:51.788Z,829.9167
2023-04-30T07:30:56.224Z,833.6667
2023-04-30T07:32:00.774Z,834.0833
2023-04-30T07:33:05.210Z,829.5000
2023-04-30T07:34:09.635Z,829.6667
2023-04-30T07:35:14.115Z,826.9167
2023-04-30T07:36:18.803Z,829.2500
2023-04-30T07:37:23.233Z,838.5000
2023-04-30T07:38:27.683Z,839.2500
2023-04-30T07:39:32.118Z,830.1667
2023-04-30T07:40:36.774Z,830.7500
2023-04-30T07:41:41.260Z,835.4167
2023-04-30T07:42:45.726Z,835.9167
2023-04-30T07:43:50.169Z,837.6667
2023-04-30T07:44:54.608Z,839.6667
2023-04-30T07:45:59.115Z,834.2500
2023-04-30T07:47:03.518Z,830.0833
2023-04-30T07:48:07.996Z,830.8333
2023-04-30T07:49:12.467Z,830.0833
2023-04-30T07:50:16.933Z,833.5000
2023-04-30T07:51:21.366Z,837.4167
2023-04-30T07:52:25.829Z,830.0833
2023-04-30T07:53:30.257Z,826.9167
2023-04-30T07:54:34.682Z,829.0833
2023-04-30T07:55:39.167Z,831.1667
2023-04-30T07:56:43.648Z,838.6667
2023-04-30T07:57:48.053Z,843.3333
2023-04-30T07:58:52.591Z,836.2500
2023-04-30T07:59:57.171Z,833.6667
2023-04-30T08:01:01.825Z,834.5000
2023-04-30T08:02:06.347Z,836.0833
2023-04-30T08:03:10.931Z,837.2500
2023-04-30T08:04:15.393Z,841.4167
2023-04-30T08:05:19.838Z,833.7500
2023-04-30T08:06:24.337Z,829.0833
2023-04-30T08:07:28.772Z,830.6667
2023-04-30T08:08:33.222Z,830.7500
2023-04-30T08:09:37.657Z,830.6667
2023-04-30T08:10:42.104Z,836.8333
2023-04-30T08:11:46.567Z,830.5833
2023-04-30T08:12:50.991Z,825.6667
2023-04-30T08:13:55.454Z,827.3333
2023-04-30T08:14:59.878Z,827.0833
2023-04-30T08:16:04.384Z,827.7500
2023-04-30T08:17:08.831Z,835.9167
2023-04-30T08:18:13.293Z,830.1667
2023-04-30T08:19:17.750Z,826.6667
2023-04-30T08:20:22.206Z,830.4167
2023-04-30T08:21:26.640Z,830.0833
2023-04-30T08:22:31.108Z,833.0833
2023-04-30T08:23:35.543Z,840.3333
2023-04-30T08:24:40.008Z,838.5833
2023-04-30T08:25:44.438Z,834.8333
2023-04-30T08:26:48.898Z,833.1667
2023-04-30T08:27:53.326Z,831.5833
2023-04-30T08:28:57.801Z,832.3333
2023-04-30T08:30:02.238Z,839.1667
2023-04-30T08:31:06.698Z,830.5833
2023-04-30T08:32:11.216Z,824.2500
2023-04-30T08:33:15.856Z,821.6667
2023-04-30T08:34:20.292Z,822.2500
2023-04-30T08:35:24.765Z,824.0000
2023-04-30T08:36:29.201Z,832.5833
2023-04-30T08:37:33.669Z,829.0833
2023-04-30T08:38:38.106Z,822.6667
2023-04-30T08:39:42.548Z,820.8333
2023-04-30T08:40:51.686Z,823.5000
2023-04-30T08:41:50.968Z,826.8182
2023-04-30T08:42:55.408Z,833.8333
2023-04-30T08:43:59.864Z,833.0833
2023-04-30T08:45:04.356Z,826.3333
2023-04-30T08:46:08.825Z,823.3333
2023-04-30T08:47:13.310Z,823.5000
2023-04-30T08:48:17.729Z,826.4167
2023-04-30T08:49:23.381Z,835.3333
2023-04-30T08:50:23.735Z,835.7273
2023-04-30T08:51:28.169Z,826.0833
2023-04-30T08:52:32.594Z,824.6667
2023-04-30T08:53:37.115Z,825.4167
2023-04-30T08:54:41.542Z,829.5833
2023-04-30T08:55:46.249Z,831.7500
2023-04-30T08:56:50.688Z,832.1667
2023-04-30T08:57:55.499Z,823.5833
2023-04-30T08:58:56.256Z,823.0000
2023-04-30T09:00:00.686Z,820.5833
2023-04-30T09:01:05.429Z,822.0833
2023-04-30T09:02:10.103Z,831.0833
2023-04-30T09:03:14.728Z,833.6667
2023-04-30T09:04:19.436Z,829.3333
2023-04-30T09:05:23.869Z,826.8333
2023-04-30T09:06:28.322Z,829.4167
2023-04-30T09:07:32.755Z,827.5833
2023-04-30T09:08:37.222Z,832.3333
2023-04-30T09:09:41.691Z,838.1667
2023-04-30T09:10:46.095Z,830.9167
2023-04-30T09:11:50.551Z,825.6667
2023-04-30T09:12:54.999Z,828.3333
2023-04-30T09:13:59.464Z,828.5833
2023-04-30T09:15:04.043Z,829.2500
2023-04-30T09:16:08.886Z,831.7500
2023-04-30T09:17:13.313Z,825.6667
2023-04-30T09:18:18.123Z,823.4167
2023-04-30T09:19:23.029Z,824.5833
2023-04-30T09:20:27.474Z,825.7500
2023-04-30T09:21:32.156Z,832.1667
2023-04-30T09:22:36.641Z,836.0833
2023-04-30T09:23:41.054Z,825.8333
2023-04-30T09:24:45.492Z,821.8333
2023-04-30T09:25:49.945Z,822.5000
2023-04-30T09:26:54.407Z,824.3333
2023-04-30T09:27:58.866Z,829.0833
2023-04-30T09:29:03.301Z,829.8333
2023-04-30T09:30:07.774Z,824.6667
2023-04-30T09:31:12.234Z,821.7500
2023-04-30T09:32:16.741Z,827.0833
2023-04-30T09:33:21.188Z,833.0833
2023-04-30T09:34:25.634Z,833.3333
2023-04-30T09:35:30.097Z,838.6667
2023-04-30T09:36:34.646Z,831.1667
2023-04-30T09:37:39.225Z,826.7500
2023-04-30T09:38:43.903Z,824.1667
2023-04-30T09:39:48.326Z,820.6667
2023-04-30T09:40:52.800Z,821.5000
2023-04-30T09:41:57.564Z,824.8333
2023-04-30T09:43:02.025Z,817.5833
2023-04-30T09:44:06.710Z,814.4167
2023-04-30T09:45:11.175Z,815.5833
2023-04-30T09:46:15.789Z,819.5000
2023-04-30T09:47:20.414Z,824.2500
2023-04-30T09:48:24.973Z,829.9167
2023-04-30T09:49:29.387Z,823.8333
2023-04-30T09:50:33.844Z,820.8333
2023-04-30T09:51:34.524Z,820.3636
2023-04-30T09:52:38.989Z,820.2500
2023-04-30T09:53:43.641Z,822.3333
2023-04-30T09:54:48.113Z,824.0833
2023-04-30T09:55:52.549Z,815.2500
2023-04-30T09:56:57.008Z,809.1667
2023-04-30T09:58:01.487Z,811.0000
2023-04-30T09:59:05.927Z,818.4167
2023-04-30T10:00:10.365Z,820.4167
2023-04-30T10:01:14.915Z,828.7500
2023-04-30T10:02:19.373Z,821.8333
2023-04-30T10:03:23.818Z,816.2500
2023-04-30T10:04:28.345Z,815.5000
2023-04-30T10:05:32.831Z,816.8333
2023-04-30T10:06:37.309Z,818.7500
2023-04-30T10:07:41.765Z,833.9167
2023-04-30T10:08:46.344Z,831.0833
2023-04-30T10:09:50.828Z,825.5000
2023-04-30T10:10:55.276Z,822.1667
2023-04-30T10:11:59.720Z,820.8333
2023-04-30T10:13:05.300Z,823.9167
2023-04-30T10:14:05.601Z,832.9091
2023-04-30T10:15:10.060Z,828.1667
2023-04-30T10:16:14.486Z,821.4167
2023-04-30T10:17:18.931Z,820.9167
2023-04-30T10:18:23.389Z,825.2500
2023-04-30T10:19:27.843Z,826.9167
2023-04-30T10:20:32.304Z,831.3333
2023-04-30T10:21:36.744Z,828.7500
2023-04-30T10:22:41.212Z,821.2500
2023-04-30T10:23:45.665Z,819.8333
2023-04-30T10:24:50.124Z,821.6667
2023-04-30T10:25:54.567Z,823.7500
2023-04-30T10:26:59.070Z,829.1667
2023-04-30T10:28:04.796Z,829.3333
2023-04-30T10:29:04.108Z,824.2727
2023-04-30T10:30:08.542Z,823.6667
2023-04-30T10:31:12.996Z,825.8333
2023-04-30T10:32:17.569Z,825.6667
2023-04-30T10:33:22.133Z,841.7500
2023-04-30T10:34:26.597Z,848.0000
2023-04-30T10:35:31.053Z,830.1667
2023-04-30T10:36:35.525Z,822.2500
2023-04-30T10:37:39.968Z,823.3333
2023-04-30T10:38:45.473Z,824.2500
2023-04-30T10:39:46.203Z,828.3636
2023-04-30T10:40:50.645Z,832.0000
2023-04-30T10:41:55.087Z,829.8333
2023-04-30T10:42:59.556Z,826.8333
2023-04-30T10:44:03.989Z,827.6667
2023-04-30T10:45:08.414Z,830.3333
2023-04-30T10:46:12.898Z,833.0833
2023-04-30T10:47:17.356Z,836.9167
2023-04-30T10:48:21.761Z,828.5000
2023-04-30T10:49:26.217Z,822.4167
2023-04-30T10:50:30.649Z,824.5000
2023-04-30T10:51:35.115Z,819.7500
2023-04-30T10:52:39.566Z,821.0833
2023-04-30T10:53:44.031Z,829.9167
2023-04-30T10:54:48.458Z,823.1667
2023-04-30T10:55:52.901Z,821.0833
2023-04-30T10:56:57.327Z,823.3333
2023-04-30T10:58:01.782Z,823.3333
2023-04-30T10:59:06.243Z,823.1667
2023-04-30T11:00:10.722Z,829.0000
2023-04-30T11:01:15.177Z,825.1667
2023-04-30T11:02:19.627Z,824.0000
2023-04-30T11:03:24.063Z,825.0000
2023-04-30T11:04:28.618Z,825.8333
2023-04-30T11:05:33.056Z,827.1667
2023-04-30T11:06:37.576Z,825.0833
2023-04-30T11:07:42.109Z,818.1667
2023-04-30T11:08:46.565Z,816.5833
2023-04-30T11:09:50.997Z,815.3333
2023-04-30T11:10:55.459Z,818.0833
2023-04-30T11:11:59.911Z,822.0000
2023-04-30T11:13:04.348Z,826.6667
2023-04-30T11:14:08.801Z,823.3333
2023-04-30T11:15:13.249Z,822.5833
2023-04-30T11:16:17.783Z,822.7500
2023-04-30T11:17:22.240Z,825.0000
2023-04-30T11:18:26.680Z,827.0833
2023-04-30T11:19:31.137Z,838.5833
2023-04-30T11:20:35.593Z,832.2500
2023-04-30T11:21:40.037Z,824.3333
2023-04-30T11:22:44.483Z,826.6667
2023-04-30T11:23:48.914Z,825.4167
2023-04-30T11:24:53.394Z,826.7500
2023-04-30T11:25:57.823Z,828.2500
2023-04-30T11:27:02.267Z,820.6667
2023-04-30T11:28:06.720Z,813.1667
2023-04-30T11:29:11.227Z,813.7500
2023-04-30T11:30:15.698Z,819.0000
2023-04-30T11:31:20.182Z,818.7500
2023-04-30T11:32:24.614Z,824.1667
2023-04-30T11:33:29.058Z,824.9167
2023-04-30T11:34:33.489Z,818.5000
2023-04-30T11:35:37.938Z,817.5000
2023-04-30T11:36:43.007Z,816.0000
2023-04-30T11:37:43.103Z,814.0000
2023-04-30T11:38:47.578Z,820.6667
2023-04-30T11:39:51.992Z,823.1667
2023-04-30T11:40:56.456Z,820.1667
2023-04-30T11:42:00.906Z,817.0000
2023-04-30T11:43:05.369Z,817.5833
2023-04-30T11:44:09.801Z,821.8333
2023-04-30T11:45:14.273Z,828.9167
2023-04-30T11:46:18.726Z,829.0833
2023-04-30T11:47:23.190Z,826.4167
2023-04-30T11:48:27.649Z,824.0833
2023-04-30T11:49:32.069Z,822.4167
2023-04-30T11:50:36.525Z,822.1667
2023-04-30T11:51:40.969Z,825.0833
2023-04-30T11:52:45.429Z,827.0000
2023-04-30T11:53:49.864Z,820.8333
2023-04-30T11:54:54.349Z,819.5833
2023-04-30T11:55:58.792Z,817.5000
2023-04-30T11:57:03.227Z,815.6667
2023-04-30T11:58:07.705Z,820.5833
2023-04-30T11:59:12.134Z,824.8333
2023-04-30T12:00:16.590Z,817.5000
2023-04-30T12:01:21.379Z,812.4167
2023-04-30T12:02:25.967Z,812.7500
2023-04-30T12:03:30.918Z,811.0833
2023-04-30T12:04:35.463Z,812.5833
2023-04-30T12:05:39.938Z,813.5833
2023-04-30T12:06:44.516Z,806.6667
2023-04-30T12:07:49.005Z,808.8333
2023-04-30T12:08:53.499Z,809.8333
2023-04-30T12:09:58.310Z,812.4167
2023-04-30T12:11:02.864Z,816.5833
2023-04-30T12:12:07.332Z,816.8333
2023-04-30T12:13:11.765Z,808.0833
2023-04-30T12:14:16.233Z,808.3333
2023-04-30T12:15:20.699Z,809.6667
2023-04-30T12:16:25.317Z,809.5000
2023-04-30T12:17:29.788Z,811.5000
2023-04-30T12:18:34.374Z,820.3333
2023-04-30T12:19:38.805Z,815.0000
2023-04-30T12:20:43.288Z,812.0000
2023-04-30T12:21:47.919Z,813.9167
2023-04-30T12:22:52.387Z,814.9167
2023-04-30T12:23:56.812Z,819.0000
2023-04-30T12:25:01.287Z,825.0833
2023-04-30T12:26:05.694Z,819.4167
2023-04-30T12:27:10.145Z,818.7500
2023-04-30T12:28:14.581Z,818.3333
2023-04-30T12:29:19.073Z,816.9167
2023-04-30T12:30:23.476Z,820.2500
2023-04-30T12:31:27.955Z,826.0000
2023-04-30T12:32:32.469Z,820.0000
2023-04-30T12:33:36.952Z,814.6667
2023-04-30T12:34:41.432Z,815.6667
2023-04-30T12:35:45.833Z,818.7500
2023-04-30T12:36:50.284Z,822.5000